sensor_id;sensor_type;location;lat;lon;timestamp;pressure;altitude;pressure_sealevel;temperature;humidity
24422;BME280;12600;53.326;-6.298;2023-08-08T00:02:04;101233.25;;;17.86;67.42
24422;BME280;12600;53.326;-6.298;2023-08-08T00:04:53;101226.94;;;17.86;67.42
24422;BME280;12600;53.326;-6.298;2023-08-08T00:07:43;101227.16;;;17.93;67.61
24422;BME280;12600;53.326;-6.298;2023-08-08T00:10:34;101224.97;;;17.99;67.63
24422;BME280;12600;53.326;-6.298;2023-08-08T00:13:23;101219.56;;;18.02;67.72
24422;BME280;12600;53.326;-6.298;2023-08-08T00:16:12;101208.63;;;18.06;67.80
24422;BME280;12600;53.326;-6.298;2023-08-08T00:19:02;101209.88;;;18.08;68.11
24422;BME280;12600;53.326;-6.298;2023-08-08T00:21:51;101200.44;;;18.09;68.10
24422;BME280;12600;53.326;-6.298;2023-08-08T00:24:40;101190.66;;;18.00;67.95
24422;BME280;12600;53.326;-6.298;2023-08-08T00:27:31;101193.19;;;18.05;68.28
24422;BME280;12600;53.326;-6.298;2023-08-08T00:30:20;101182.13;;;18.05;68.45
24422;BME280;12600;53.326;-6.298;2023-08-08T00:33:10;101193.50;;;18.03;68.45
24422;BME280;12600;53.326;-6.298;2023-08-08T00:35:59;101193.41;;;18.00;68.87
24422;BME280;12600;53.326;-6.298;2023-08-08T00:38:49;101193.88;;;18.02;68.97
24422;BME280;12600;53.326;-6.298;2023-08-08T00:41:38;101187.09;;;17.99;68.84
24422;BME280;12600;53.326;-6.298;2023-08-08T00:44:29;101194.00;;;18.05;68.89
24422;BME280;12600;53.326;-6.298;2023-08-08T00:47:18;101196.19;;;18.00;68.77
24422;BME280;12600;53.326;-6.298;2023-08-08T00:50:09;101191.34;;;17.97;68.82
24422;BME280;12600;53.326;-6.298;2023-08-08T00:53:01;101194.19;;;17.88;69.25
24422;BME280;12600;53.326;-6.298;2023-08-08T00:55:51;101192.16;;;17.73;69.81
24422;BME280;12600;53.326;-6.298;2023-08-08T00:58:42;101183.59;;;17.66;70.13
24422;BME280;12600;53.326;-6.298;2023-08-08T01:01:34;101163.75;;;17.51;70.50
24422;BME280;12600;53.326;-6.298;2023-08-08T01:04:26;101157.31;;;17.47;70.63
24422;BME280;12600;53.326;-6.298;2023-08-08T01:07:25;101175.16;;;17.62;70.84
24422;BME280;12600;53.326;-6.298;2023-08-08T01:10:23;101165.97;;;17.58;70.71
24422;BME280;12600;53.326;-6.298;2023-08-08T01:13:19;101160.91;;;17.60;70.68
24422;BME280;12600;53.326;-6.298;2023-08-08T01:16:10;101153.63;;;17.55;70.64
24422;BME280;12600;53.326;-6.298;2023-08-08T01:19:01;101179.47;;;17.72;70.47
24422;BME280;12600;53.326;-6.298;2023-08-08T01:21:54;101166.44;;;17.72;70.55
24422;BME280;12600;53.326;-6.298;2023-08-08T01:24:45;101172.91;;;17.76;70.48
24422;BME280;12600;53.326;-6.298;2023-08-08T01:27:35;101178.44;;;17.76;70.80
24422;BME280;12600;53.326;-6.298;2023-08-08T01:30:25;101177.63;;;17.76;70.82
24422;BME280;12600;53.326;-6.298;2023-08-08T01:33:15;101167.72;;;17.75;70.82
24422;BME280;12600;53.326;-6.298;2023-08-08T01:36:10;101171.31;;;17.75;70.85
24422;BME280;12600;53.326;-6.298;2023-08-08T01:39:02;101174.88;;;17.76;71.00
24422;BME280;12600;53.326;-6.298;2023-08-08T01:41:56;101169.41;;;17.67;70.89
24422;BME280;12600;53.326;-6.298;2023-08-08T01:44:47;101177.50;;;17.72;71.06
24422;BME280;12600;53.326;-6.298;2023-08-08T01:47:37;101175.22;;;17.74;71.19
24422;BME280;12600;53.326;-6.298;2023-08-08T01:50:26;101173.63;;;17.73;71.11
24422;BME280;12600;53.326;-6.298;2023-08-08T01:53:16;101164.56;;;17.64;71.32
24422;BME280;12600;53.326;-6.298;2023-08-08T01:56:05;101169.63;;;17.62;71.62
24422;BME280;12600;53.326;-6.298;2023-08-08T01:58:56;101173.78;;;17.56;71.98
24422;BME280;12600;53.326;-6.298;2023-08-08T02:01:45;101176.78;;;17.51;72.36
24422;BME280;12600;53.326;-6.298;2023-08-08T02:04:34;101162.25;;;17.42;72.85
24422;BME280;12600;53.326;-6.298;2023-08-08T02:07:24;101165.47;;;17.44;73.05
24422;BME280;12600;53.326;-6.298;2023-08-08T02:10:13;101165.03;;;17.42;73.19
24422;BME280;12600;53.326;-6.298;2023-08-08T02:13:03;101152.44;;;17.32;73.25
24422;BME280;12600;53.326;-6.298;2023-08-08T02:15:54;101141.53;;;17.36;73.13
24422;BME280;12600;53.326;-6.298;2023-08-08T02:18:43;101152.69;;;17.39;73.29
24422;BME280;12600;53.326;-6.298;2023-08-08T02:21:33;101146.09;;;17.31;73.28
24422;BME280;12600;53.326;-6.298;2023-08-08T02:24:22;101149.91;;;17.27;73.84
24422;BME280;12600;53.326;-6.298;2023-08-08T02:27:12;101131.50;;;17.19;73.87
24422;BME280;12600;53.326;-6.298;2023-08-08T02:30:02;101126.06;;;17.22;74.14
24422;BME280;12600;53.326;-6.298;2023-08-08T02:32:53;101136.31;;;17.22;74.17
24422;BME280;12600;53.326;-6.298;2023-08-08T02:35:42;101125.63;;;17.20;73.74
24422;BME280;12600;53.326;-6.298;2023-08-08T02:38:32;101137.25;;;17.26;73.90
24422;BME280;12600;53.326;-6.298;2023-08-08T02:41:22;101134.94;;;17.28;73.60
24422;BME280;12600;53.326;-6.298;2023-08-08T02:44:11;101139.47;;;17.32;73.71
24422;BME280;12600;53.326;-6.298;2023-08-08T02:47:01;101138.31;;;17.33;73.85
24422;BME280;12600;53.326;-6.298;2023-08-08T02:49:52;101142.34;;;17.36;73.93
24422;BME280;12600;53.326;-6.298;2023-08-08T02:52:41;101136.81;;;17.36;73.91
24422;BME280;12600;53.326;-6.298;2023-08-08T02:55:31;101137.25;;;17.38;74.02
24422;BME280;12600;53.326;-6.298;2023-08-08T02:58:21;101126.09;;;17.34;73.93
24422;BME280;12600;53.326;-6.298;2023-08-08T03:01:10;101125.19;;;17.43;73.96
24422;BME280;12600;53.326;-6.298;2023-08-08T03:04:04;101133.59;;;17.46;73.75
24422;BME280;12600;53.326;-6.298;2023-08-08T03:06:55;101120.81;;;17.42;73.56
24422;BME280;12600;53.326;-6.298;2023-08-08T03:09:47;101109.88;;;17.45;73.69
24422;BME280;12600;53.326;-6.298;2023-08-08T03:12:36;101119.78;;;17.46;73.99
24422;BME280;12600;53.326;-6.298;2023-08-08T03:15:27;101118.53;;;17.44;73.77
24422;BME280;12600;53.326;-6.298;2023-08-08T03:18:17;101123.84;;;17.49;73.82
24422;BME280;12600;53.326;-6.298;2023-08-08T03:21:07;101127.41;;;17.49;73.91
24422;BME280;12600;53.326;-6.298;2023-08-08T03:23:58;101115.75;;;17.44;73.77
24422;BME280;12600;53.326;-6.298;2023-08-08T03:26:47;101113.00;;;17.44;73.99
24422;BME280;12600;53.326;-6.298;2023-08-08T03:29:37;101118.53;;;17.44;74.11
24422;BME280;12600;53.326;-6.298;2023-08-08T03:32:27;101121.63;;;17.42;74.20
24422;BME280;12600;53.326;-6.298;2023-08-08T03:35:17;101114.72;;;17.36;74.22
24422;BME280;12600;53.326;-6.298;2023-08-08T03:38:07;101125.50;;;17.29;74.08
24422;BME280;12600;53.326;-6.298;2023-08-08T03:40:58;101132.53;;;17.26;74.02
24422;BME280;12600;53.326;-6.298;2023-08-08T03:43:47;101130.19;;;17.16;74.37
24422;BME280;12600;53.326;-6.298;2023-08-08T03:46:39;101119.16;;;17.16;74.27
24422;BME280;12600;53.326;-6.298;2023-08-08T03:49:28;101123.56;;;17.17;74.26
24422;BME280;12600;53.326;-6.298;2023-08-08T03:52:20;101122.25;;;17.15;74.24
24422;BME280;12600;53.326;-6.298;2023-08-08T03:55:09;101123.41;;;17.14;74.11
24422;BME280;12600;53.326;-6.298;2023-08-08T03:58:01;101119.25;;;17.08;74.28
24422;BME280;12600;53.326;-6.298;2023-08-08T04:00:50;101115.22;;;17.05;74.09
24422;BME280;12600;53.326;-6.298;2023-08-08T04:03:40;101106.84;;;17.01;73.95
24422;BME280;12600;53.326;-6.298;2023-08-08T04:06:29;101105.09;;;16.97;74.05
24422;BME280;12600;53.326;-6.298;2023-08-08T04:09:19;101116.34;;;16.92;74.21
24422;BME280;12600;53.326;-6.298;2023-08-08T04:12:09;101114.97;;;16.86;74.04
24422;BME280;12600;53.326;-6.298;2023-08-08T04:15:00;101102.50;;;16.80;74.32
24422;BME280;12600;53.326;-6.298;2023-08-08T04:17:51;101106.28;;;16.75;74.25
24422;BME280;12600;53.326;-6.298;2023-08-08T04:20:40;101098.53;;;16.68;74.31
24422;BME280;12600;53.326;-6.298;2023-08-08T04:23:30;101088.25;;;16.57;74.36
24422;BME280;12600;53.326;-6.298;2023-08-08T04:26:19;101086.03;;;16.50;74.67
24422;BME280;12600;53.326;-6.298;2023-08-08T04:29:09;101080.47;;;16.38;74.78
24422;BME280;12600;53.326;-6.298;2023-08-08T04:31:59;101087.00;;;16.33;75.16
24422;BME280;12600;53.326;-6.298;2023-08-08T04:34:49;101076.16;;;16.28;75.45
24422;BME280;12600;53.326;-6.298;2023-08-08T04:37:38;101069.91;;;16.19;75.62
24422;BME280;12600;53.326;-6.298;2023-08-08T04:40:28;101083.03;;;16.22;75.62
24422;BME280;12600;53.326;-6.298;2023-08-08T04:43:17;101077.38;;;16.18;75.48
24422;BME280;12600;53.326;-6.298;2023-08-08T04:46:07;101078.53;;;16.17;75.60
24422;BME280;12600;53.326;-6.298;2023-08-08T04:48:59;101077.59;;;16.13;75.43
24422;BME280;12600;53.326;-6.298;2023-08-08T04:51:48;101081.81;;;16.11;75.52
24422;BME280;12600;53.326;-6.298;2023-08-08T04:54:37;101068.44;;;16.01;75.62
24422;BME280;12600;53.326;-6.298;2023-08-08T04:57:27;101074.41;;;16.03;75.59
24422;BME280;12600;53.326;-6.298;2023-08-08T05:00:17;101068.09;;;16.02;75.82
24422;BME280;12600;53.326;-6.298;2023-08-08T05:03:06;101067.31;;;16.02;75.77
24422;BME280;12600;53.326;-6.298;2023-08-08T05:05:57;101068.78;;;15.99;75.87
24422;BME280;12600;53.326;-6.298;2023-08-08T05:08:48;101066.56;;;15.92;75.88
24422;BME280;12600;53.326;-6.298;2023-08-08T05:11:38;101070.13;;;15.93;76.29
24422;BME280;12600;53.326;-6.298;2023-08-08T05:14:27;101067.38;;;15.93;76.46
24422;BME280;12600;53.326;-6.298;2023-08-08T05:17:16;101063.34;;;15.90;76.20
24422;BME280;12600;53.326;-6.298;2023-08-08T05:20:10;101054.47;;;15.85;76.58
24422;BME280;12600;53.326;-6.298;2023-08-08T05:23:01;101042.81;;;15.79;76.56
24422;BME280;12600;53.326;-6.298;2023-08-08T05:25:50;101052.38;;;15.82;76.47
24422;BME280;12600;53.326;-6.298;2023-08-08T05:28:40;101052.38;;;15.82;76.63
24422;BME280;12600;53.326;-6.298;2023-08-08T05:31:29;101059.97;;;15.85;76.67
24422;BME280;12600;53.326;-6.298;2023-08-08T05:34:23;101056.59;;;15.79;76.87
24422;BME280;12600;53.326;-6.298;2023-08-08T05:37:12;101068.22;;;15.85;77.13
24422;BME280;12600;53.326;-6.298;2023-08-08T05:40:07;101056.94;;;15.78;76.89
24422;BME280;12600;53.326;-6.298;2023-08-08T05:42:58;101068.22;;;15.85;76.87
24422;BME280;12600;53.326;-6.298;2023-08-08T05:45:50;101064.66;;;15.84;77.11
24422;BME280;12600;53.326;-6.298;2023-08-08T05:48:40;101069.84;;;15.86;77.42
24422;BME280;12600;53.326;-6.298;2023-08-08T05:51:29;101079.41;;;15.88;77.49
24422;BME280;12600;53.326;-6.298;2023-08-08T05:54:19;101075.50;;;15.89;77.61
24422;BME280;12600;53.326;-6.298;2023-08-08T05:57:10;101080.00;;;15.94;77.84
24422;BME280;12600;53.326;-6.298;2023-08-08T05:59:59;101070.41;;;16.00;77.73
24422;BME280;12600;53.326;-6.298;2023-08-08T06:02:59;101072.97;;;16.05;78.05
24422;BME280;12600;53.326;-6.298;2023-08-08T06:05:49;101082.78;;;16.15;77.89
24422;BME280;12600;53.326;-6.298;2023-08-08T06:08:38;101070.06;;;16.22;78.38
24422;BME280;12600;53.326;-6.298;2023-08-08T06:11:27;101072.88;;;16.35;78.30
24422;BME280;12600;53.326;-6.298;2023-08-08T06:14:21;101063.41;;;16.44;78.47
24422;BME280;12600;53.326;-6.298;2023-08-08T06:17:10;101051.78;;;16.51;78.29
24422;BME280;12600;53.326;-6.298;2023-08-08T06:20:00;101064.03;;;16.62;78.49
24422;BME280;12600;53.326;-6.298;2023-08-08T06:22:51;101049.72;;;16.69;78.39
24422;BME280;12600;53.326;-6.298;2023-08-08T06:25:41;101057.31;;;16.72;78.31
24422;BME280;12600;53.326;-6.298;2023-08-08T06:28:30;101061.91;;;16.80;78.59
24422;BME280;12600;53.326;-6.298;2023-08-08T06:31:21;101067.44;;;16.92;78.57
24422;BME280;12600;53.326;-6.298;2023-08-08T06:34:11;101065.53;;;17.05;78.79
24422;BME280;12600;53.326;-6.298;2023-08-08T06:37:00;101069.13;;;17.18;78.59
24422;BME280;12600;53.326;-6.298;2023-08-08T06:39:50;101063.16;;;17.28;78.58
24422;BME280;12600;53.326;-6.298;2023-08-08T06:42:39;101068.09;;;17.34;78.61
24422;BME280;12600;53.326;-6.298;2023-08-08T06:45:28;101078.47;;;17.50;78.68
24422;BME280;12600;53.326;-6.298;2023-08-08T06:48:19;101081.78;;;17.68;78.72
24422;BME280;12600;53.326;-6.298;2023-08-08T06:51:08;101060.97;;;17.82;78.83
24422;BME280;12600;53.326;-6.298;2023-08-08T06:53:58;101057.72;;;17.93;78.96
24422;BME280;12600;53.326;-6.298;2023-08-08T06:56:47;101068.50;;;18.10;78.71
24422;BME280;12600;53.326;-6.298;2023-08-08T06:59:37;101057.28;;;18.18;78.28
24422;BME280;12600;53.326;-6.298;2023-08-08T07:02:26;101067.06;;;18.28;78.47
24422;BME280;12600;53.326;-6.298;2023-08-08T07:05:17;101055.53;;;18.26;77.96
24422;BME280;12600;53.326;-6.298;2023-08-08T07:08:07;101059.16;;;18.42;78.01
24422;BME280;12600;53.326;-6.298;2023-08-08T07:10:57;101076.41;;;18.52;78.00
24422;BME280;12600;53.326;-6.298;2023-08-08T07:13:46;101069.69;;;18.65;78.16
24422;BME280;12600;53.326;-6.298;2023-08-08T07:16:36;101063.84;;;18.82;77.86
24422;BME280;12600;53.326;-6.298;2023-08-08T07:19:25;101056.81;;;19.00;77.98
24422;BME280;12600;53.326;-6.298;2023-08-08T07:22:16;101051.25;;;19.16;77.42
24422;BME280;12600;53.326;-6.298;2023-08-08T07:25:06;101055.94;;;19.28;76.93
24422;BME280;12600;53.326;-6.298;2023-08-08T07:27:56;101047.88;;;19.39;76.44
24422;BME280;12600;53.326;-6.298;2023-08-08T07:30:45;101054.31;;;19.43;75.55
24422;BME280;12600;53.326;-6.298;2023-08-08T07:33:35;101058.56;;;19.56;74.87
24422;BME280;12600;53.326;-6.298;2023-08-08T07:36:24;101052.41;;;19.63;74.40
24422;BME280;12600;53.326;-6.298;2023-08-08T07:39:15;101061.63;;;19.67;73.73
24422;BME280;12600;53.326;-6.298;2023-08-08T07:42:05;101049.53;;;19.75;74.02
24422;BME280;12600;53.326;-6.298;2023-08-08T07:44:54;101048.69;;;19.90;74.42
24422;BME280;12600;53.326;-6.298;2023-08-08T07:47:43;101062.31;;;20.15;74.73
24422;BME280;12600;53.326;-6.298;2023-08-08T07:50:33;101066.09;;;20.45;74.76
24422;BME280;12600;53.326;-6.298;2023-08-08T07:53:22;101066.84;;;20.84;74.41
24422;BME280;12600;53.326;-6.298;2023-08-08T07:56:13;101072.00;;;21.05;73.63
24422;BME280;12600;53.326;-6.298;2023-08-08T07:59:03;101072.25;;;21.19;73.31
24422;BME280;12600;53.326;-6.298;2023-08-08T08:01:53;101074.38;;;21.26;71.97
24422;BME280;12600;53.326;-6.298;2023-08-08T08:04:42;101079.63;;;21.31;70.80
24422;BME280;12600;53.326;-6.298;2023-08-08T08:07:32;101066.53;;;21.32;69.71
24422;BME280;12600;53.326;-6.298;2023-08-08T08:10:21;101056.59;;;21.31;69.02
24422;BME280;12600;53.326;-6.298;2023-08-08T08:13:12;101056.28;;;21.36;68.83
24422;BME280;12600;53.326;-6.298;2023-08-08T08:16:02;101055.38;;;21.55;68.10
24422;BME280;12600;53.326;-6.298;2023-08-08T08:18:51;101057.50;;;21.65;67.65
24422;BME280;12600;53.326;-6.298;2023-08-08T08:21:41;101057.59;;;21.68;66.41
24422;BME280;12600;53.326;-6.298;2023-08-08T08:24:31;101044.41;;;21.65;65.28
24422;BME280;12600;53.326;-6.298;2023-08-08T08:27:20;101060.94;;;21.81;65.16
24422;BME280;12600;53.326;-6.298;2023-08-08T08:30:12;101056.72;;;21.91;64.89
24422;BME280;12600;53.326;-6.298;2023-08-08T08:33:04;101039.25;;;21.94;63.56
24422;BME280;12600;53.326;-6.298;2023-08-08T08:35:55;101039.09;;;22.10;63.04
24422;BME280;12600;53.326;-6.298;2023-08-08T08:38:44;101039.69;;;22.26;62.25
24422;BME280;12600;53.326;-6.298;2023-08-08T08:41:36;101039.88;;;22.40;61.35
24422;BME280;12600;53.326;-6.298;2023-08-08T08:44:26;101059.97;;;22.60;61.24
24422;BME280;12600;53.326;-6.298;2023-08-08T08:47:20;101057.81;;;22.80;60.88
24422;BME280;12600;53.326;-6.298;2023-08-08T08:50:10;101045.41;;;23.11;60.82
24422;BME280;12600;53.326;-6.298;2023-08-08T08:53:00;101056.88;;;23.54;61.20
24422;BME280;12600;53.326;-6.298;2023-08-08T08:55:50;101067.47;;;23.85;60.70
24422;BME280;12600;53.326;-6.298;2023-08-08T08:58:40;101073.91;;;23.93;58.84
24422;BME280;12600;53.326;-6.298;2023-08-08T09:01:30;101065.06;;;23.84;56.61
24422;BME280;12600;53.326;-6.298;2023-08-08T09:04:22;101069.34;;;23.67;57.01
24422;BME280;12600;53.326;-6.298;2023-08-08T09:07:12;101068.38;;;23.49;56.55
24422;BME280;12600;53.326;-6.298;2023-08-08T09:10:02;101063.13;;;23.36;56.42
24422;BME280;12600;53.326;-6.298;2023-08-08T09:12:52;101060.66;;;23.28;56.60
24422;BME280;12600;53.326;-6.298;2023-08-08T09:15:42;101068.56;;;23.22;56.10
24422;BME280;12600;53.326;-6.298;2023-08-08T09:18:32;101058.63;;;23.21;56.33
24422;BME280;12600;53.326;-6.298;2023-08-08T09:21:23;101055.03;;;23.21;55.62
24422;BME280;12600;53.326;-6.298;2023-08-08T09:24:13;101061.47;;;23.28;55.90
24422;BME280;12600;53.326;-6.298;2023-08-08T09:27:02;101057.63;;;23.47;56.10
24422;BME280;12600;53.326;-6.298;2023-08-08T09:29:53;101061.34;;;23.65;55.80
24422;BME280;12600;53.326;-6.298;2023-08-08T09:32:44;101050.31;;;23.83;55.67
24422;BME280;12600;53.326;-6.298;2023-08-08T09:35:33;101051.97;;;23.91;54.46
24422;BME280;12600;53.326;-6.298;2023-08-08T09:38:24;101034.34;;;23.77;53.49
24422;BME280;12600;53.326;-6.298;2023-08-08T09:41:14;101058.31;;;23.85;53.73
24422;BME280;12600;53.326;-6.298;2023-08-08T09:44:03;101062.53;;;23.64;52.38
24422;BME280;12600;53.326;-6.298;2023-08-08T09:46:53;101062.38;;;23.43;52.21
24422;BME280;12600;53.326;-6.298;2023-08-08T09:49:42;101066.13;;;23.17;51.91
24422;BME280;12600;53.326;-6.298;2023-08-08T09:52:33;101056.31;;;22.86;52.20
24422;BME280;12600;53.326;-6.298;2023-08-08T09:55:25;101060.91;;;22.71;52.54
24422;BME280;12600;53.326;-6.298;2023-08-08T09:58:14;101065.97;;;22.62;52.94
24422;BME280;12600;53.326;-6.298;2023-08-08T10:01:04;101069.34;;;22.45;53.63
24422;BME280;12600;53.326;-6.298;2023-08-08T10:03:54;100996.69;;;21.90;54.09
24422;BME280;12600;53.326;-6.298;2023-08-08T10:06:55;101071.53;;;22.28;55.08
24422;BME280;12600;53.326;-6.298;2023-08-08T10:09:44;101061.41;;;22.13;55.32
24422;BME280;12600;53.326;-6.298;2023-08-08T10:12:37;101061.63;;;22.01;56.02
24422;BME280;12600;53.326;-6.298;2023-08-08T10:15:27;101067.94;;;21.98;56.56
24422;BME280;12600;53.326;-6.298;2023-08-08T10:18:17;101060.41;;;21.98;57.00
24422;BME280;12600;53.326;-6.298;2023-08-08T10:21:06;101060.75;;;21.97;57.56
24422;BME280;12600;53.326;-6.298;2023-08-08T10:24:04;101066.06;;;21.79;57.82
24422;BME280;12600;53.326;-6.298;2023-08-08T10:26:57;101078.88;;;21.84;58.01
24422;BME280;12600;53.326;-6.298;2023-08-08T10:29:51;101064.78;;;21.73;58.21
24422;BME280;12600;53.326;-6.298;2023-08-08T10:32:42;101075.22;;;21.79;58.56
24422;BME280;12600;53.326;-6.298;2023-08-08T10:35:37;101084.44;;;21.84;58.48
24422;BME280;12600;53.326;-6.298;2023-08-08T10:38:38;101080.41;;;21.81;58.55
24422;BME280;12600;53.326;-6.298;2023-08-08T10:41:28;101076.41;;;21.78;58.53
24422;BME280;12600;53.326;-6.298;2023-08-08T10:44:24;101078.25;;;21.71;58.28
24422;BME280;12600;53.326;-6.298;2023-08-08T10:47:15;101080.47;;;21.58;58.62
24422;BME280;12600;53.326;-6.298;2023-08-08T10:50:06;101065.69;;;21.28;58.87
24422;BME280;12600;53.326;-6.298;2023-08-08T10:52:59;101074.00;;;21.05;59.14
24422;BME280;12600;53.326;-6.298;2023-08-08T10:55:58;101074.91;;;20.89;59.68
24422;BME280;12600;53.326;-6.298;2023-08-08T10:58:49;101068.34;;;20.78;59.92
24422;BME280;12600;53.326;-6.298;2023-08-08T11:01:39;101071.22;;;20.62;60.19
24422;BME280;12600;53.326;-6.298;2023-08-08T11:04:31;101066.25;;;20.52;60.61
24422;BME280;12600;53.326;-6.298;2023-08-08T11:07:20;101060.56;;;20.45;60.81
24422;BME280;12600;53.326;-6.298;2023-08-08T11:10:10;101050.72;;;20.48;61.01
24422;BME280;12600;53.326;-6.298;2023-08-08T11:13:02;101054.22;;;20.45;61.43
24422;BME280;12600;53.326;-6.298;2023-08-08T11:15:52;101043.25;;;20.32;61.67
24422;BME280;12600;53.326;-6.298;2023-08-08T11:18:42;101069.16;;;20.40;61.76
24422;BME280;12600;53.326;-6.298;2023-08-08T11:21:36;101081.97;;;20.45;62.12
24422;BME280;12600;53.326;-6.298;2023-08-08T11:24:26;101088.78;;;20.47;62.05
24422;BME280;12600;53.326;-6.298;2023-08-08T11:27:16;101079.69;;;20.50;62.24
24422;BME280;12600;53.326;-6.298;2023-08-08T11:30:10;101079.47;;;20.59;62.05
24422;BME280;12600;53.326;-6.298;2023-08-08T11:33:00;101068.81;;;20.61;61.93
24422;BME280;12600;53.326;-6.298;2023-08-08T11:35:53;101085.53;;;20.64;61.73
24422;BME280;12600;53.326;-6.298;2023-08-08T11:38:44;101088.31;;;20.64;61.57
24422;BME280;12600;53.326;-6.298;2023-08-08T11:41:35;101090.66;;;20.62;61.38
24422;BME280;12600;53.326;-6.298;2023-08-08T11:44:25;101094.25;;;20.63;61.30
24422;BME280;12600;53.326;-6.298;2023-08-08T11:47:14;101101.25;;;20.57;61.13
24422;BME280;12600;53.326;-6.298;2023-08-08T11:50:06;101101.84;;;20.47;61.28
24422;BME280;12600;53.326;-6.298;2023-08-08T11:52:56;101103.38;;;20.44;61.71
24422;BME280;12600;53.326;-6.298;2023-08-08T11:55:47;101077.34;;;20.33;61.41
24422;BME280;12600;53.326;-6.298;2023-08-08T11:58:38;101090.47;;;20.36;61.68
24422;BME280;12600;53.326;-6.298;2023-08-08T12:01:30;101072.00;;;20.24;61.80
24422;BME280;12600;53.326;-6.298;2023-08-08T12:04:20;101073.97;;;20.24;61.97
24422;BME280;12600;53.326;-6.298;2023-08-08T12:07:13;101080.56;;;20.16;62.30
24422;BME280;12600;53.326;-6.298;2023-08-08T12:10:05;101075.13;;;20.03;63.34
24422;BME280;12600;53.326;-6.298;2023-08-08T12:12:58;101064.81;;;19.84;64.13
24422;BME280;12600;53.326;-6.298;2023-08-08T12:15:48;101061.81;;;19.74;65.28
24422;BME280;12600;53.326;-6.298;2023-08-08T12:18:40;101062.06;;;19.69;66.39
24422;BME280;12600;53.326;-6.298;2023-08-08T12:21:30;101060.38;;;19.64;67.34
24422;BME280;12600;53.326;-6.298;2023-08-08T12:24:21;101054.03;;;19.64;68.05
24422;BME280;12600;53.326;-6.298;2023-08-08T12:27:10;101044.72;;;19.72;68.44
24422;BME280;12600;53.326;-6.298;2023-08-08T12:30:01;101045.41;;;19.84;69.30
24422;BME280;12600;53.326;-6.298;2023-08-08T12:32:51;101030.53;;;19.93;69.77
24422;BME280;12600;53.326;-6.298;2023-08-08T12:35:41;101023.91;;;20.17;70.07
24422;BME280;12600;53.326;-6.298;2023-08-08T12:38:31;101037.16;;;20.65;70.33
24422;BME280;12600;53.326;-6.298;2023-08-08T12:41:20;101049.78;;;21.05;69.89
24422;BME280;12600;53.326;-6.298;2023-08-08T12:44:09;101049.53;;;21.37;69.48
24422;BME280;12600;53.326;-6.298;2023-08-08T12:47:00;101051.16;;;21.64;68.29
24422;BME280;12600;53.326;-6.298;2023-08-08T12:49:50;100955.22;;;21.24;67.22
24422;BME280;12600;53.326;-6.298;2023-08-08T12:52:39;101038.72;;;22.11;67.91
24422;BME280;12600;53.326;-6.298;2023-08-08T12:55:29;101043.94;;;22.50;66.15
24422;BME280;12600;53.326;-6.298;2023-08-08T12:58:18;101043.50;;;22.81;65.63
24422;BME280;12600;53.326;-6.298;2023-08-08T13:01:08;101039.81;;;23.11;65.60
24422;BME280;12600;53.326;-6.298;2023-08-08T13:04:00;101047.94;;;23.30;62.95
24422;BME280;12600;53.326;-6.298;2023-08-08T13:07:09;101049.31;;;23.54;63.72
24422;BME280;12600;53.326;-6.298;2023-08-08T13:09:58;101051.38;;;23.61;61.96
24422;BME280;12600;53.326;-6.298;2023-08-08T13:12:50;101046.25;;;23.66;61.49
24422;BME280;12600;53.326;-6.298;2023-08-08T13:15:39;101042.75;;;23.84;61.31
24422;BME280;12600;53.326;-6.298;2023-08-08T13:18:29;101041.19;;;23.93;60.85
24422;BME280;12600;53.326;-6.298;2023-08-08T13:21:19;101049.97;;;23.92;59.20
24422;BME280;12600;53.326;-6.298;2023-08-08T13:24:09;101051.22;;;24.05;59.21
24422;BME280;12600;53.326;-6.298;2023-08-08T13:27:00;101054.59;;;24.39;59.14
24422;BME280;12600;53.326;-6.298;2023-08-08T13:29:50;101053.06;;;24.67;57.69
24422;BME280;12600;53.326;-6.298;2023-08-08T13:32:41;101046.31;;;24.86;56.79
24422;BME280;12600;53.326;-6.298;2023-08-08T13:35:31;101055.13;;;24.98;56.63
24422;BME280;12600;53.326;-6.298;2023-08-08T13:38:22;101062.75;;;25.08;55.33
24422;BME280;12600;53.326;-6.298;2023-08-08T13:41:12;101045.53;;;24.99;53.81
24422;BME280;12600;53.326;-6.298;2023-08-08T13:44:01;101044.34;;;24.90;53.29
24422;BME280;12600;53.326;-6.298;2023-08-08T13:46:51;101053.91;;;24.89;53.65
24422;BME280;12600;53.326;-6.298;2023-08-08T13:49:40;101057.50;;;24.86;53.46
24422;BME280;12600;53.326;-6.298;2023-08-08T13:52:30;101055.09;;;24.80;53.87
24422;BME280;12600;53.326;-6.298;2023-08-08T13:55:26;101053.47;;;24.69;53.80
24422;BME280;12600;53.326;-6.298;2023-08-08T13:58:15;101067.00;;;24.52;54.08
24422;BME280;12600;53.326;-6.298;2023-08-08T14:01:08;101064.91;;;24.32;52.73
24422;BME280;12600;53.326;-6.298;2023-08-08T14:03:57;101068.44;;;24.14;53.62
24422;BME280;12600;53.326;-6.298;2023-08-08T14:06:47;101070.38;;;24.07;54.32
24422;BME280;12600;53.326;-6.298;2023-08-08T14:09:36;101063.50;;;23.90;54.69
24422;BME280;12600;53.326;-6.298;2023-08-08T14:12:27;101075.53;;;24.05;54.62
24422;BME280;12600;53.326;-6.298;2023-08-08T14:15:16;101077.94;;;24.06;54.64
24422;BME280;12600;53.326;-6.298;2023-08-08T14:18:06;101058.00;;;24.04;54.61
24422;BME280;12600;53.326;-6.298;2023-08-08T14:20:58;101058.91;;;24.26;53.87
24422;BME280;12600;53.326;-6.298;2023-08-08T14:23:48;101077.75;;;24.40;53.80
24422;BME280;12600;53.326;-6.298;2023-08-08T14:26:37;101055.78;;;24.38;53.68
24422;BME280;12600;53.326;-6.298;2023-08-08T14:29:28;101061.28;;;24.24;53.01
24422;BME280;12600;53.326;-6.298;2023-08-08T14:32:18;101068.41;;;24.11;53.19
24422;BME280;12600;53.326;-6.298;2023-08-08T14:35:08;101043.56;;;23.84;53.44
24422;BME280;12600;53.326;-6.298;2023-08-08T14:37:58;101069.47;;;23.88;53.84
24422;BME280;12600;53.326;-6.298;2023-08-08T14:40:47;101069.38;;;23.74;53.41